Time;durP1;ratioP1;P1;durP2;ratioP2;P2;SDS_P1;SDS_P2;PMS_P1;PMS_P2;Temp;Humidity;BMP_temperature;BMP_pressure;BME280_temperature;BME280_humidity;BME280_pressure;Samples;Min_cycle;Max_cycle;Signal;HPM_P1;HPM_P2
2021/08/12 00:01:13;;;;;;;23.30;21.57;;;15.20;99.90;;;;;;5049424;28;20464;-69
2021/08/12 00:03:41;;;;;;;22.37;20.30;;;15.20;99.90;;;;;;5057426;28;20812;-71
2021/08/12 00:06:09;;;;;;;23.93;21.73;;;15.10;99.90;;;;;;5055353;28;20459;-69
2021/08/12 00:08:37;;;;;;;23.67;21.70;;;15.00;99.90;;;;;;5054376;28;20701;-71
2021/08/12 00:11:07;;;;;;;24.00;21.70;;;15.00;99.90;;;;;;5056508;28;20975;-71
2021/08/12 00:13:35;;;;;;;22.73;20.93;;;14.90;99.90;;;;;;5048796;28;20461;-71
2021/08/12 00:16:03;;;;;;;22.93;21.10;;;15.00;99.90;;;;;;5049735;28;20666;-69
2021/08/12 00:18:31;;;;;;;22.13;20.43;;;15.00;99.90;;;;;;5058458;28;20554;-70
2021/08/12 00:21:01;;;;;;;26.27;23.23;;;15.00;99.90;;;;;;5056306;28;20469;-69
2021/08/12 00:23:30;;;;;;;25.87;23.57;;;14.90;99.90;;;;;;5059080;28;20463;-69
2021/08/12 00:25:57;;;;;;;24.53;22.30;;;15.00;99.90;;;;;;5056033;28;20832;-69
2021/08/12 00:28:24;;;;;;;24.20;22.20;;;14.90;99.90;;;;;;5059425;28;20543;-69
2021/08/12 00:30:52;;;;;;;23.23;21.13;;;14.90;99.90;;;;;;5053071;28;20463;-69
2021/08/12 00:33:18;;;;;;;25.10;23.00;;;14.90;99.90;;;;;;5057900;28;20455;-69
2021/08/12 00:35:45;;;;;;;23.40;21.27;;;14.90;99.90;;;;;;5052382;28;20821;-69
2021/08/12 00:38:14;;;;;;;23.80;21.57;;;14.90;99.90;;;;;;5059599;28;20462;-72
2021/08/12 00:40:41;;;;;;;25.50;23.10;;;14.90;99.90;;;;;;5054040;28;20777;-70
2021/08/12 00:43:08;;;;;;;25.07;22.80;;;14.90;99.90;;;;;;5054811;28;20460;-69
2021/08/12 00:45:35;;;;;;;25.13;23.03;;;14.80;99.90;;;;;;5049832;28;20467;-71
2021/08/12 00:48:01;;;;;;;26.00;23.63;;;14.80;99.90;;;;;;5053998;28;20814;-70
2021/08/12 00:50:28;;;;;;;25.30;23.10;;;14.70;99.90;;;;;;5051144;28;20583;-70
2021/08/12 00:52:57;;;;;;;22.97;21.27;;;14.60;99.90;;;;;;5057018;28;20880;-69
2021/08/12 00:55:25;;;;;;;24.37;22.37;;;14.60;99.90;;;;;;5055907;28;20478;-70
2021/08/12 00:57:53;;;;;;;24.33;22.37;;;14.50;99.90;;;;;;5048251;28;20467;-69
2021/08/12 01:00:20;;;;;;;24.40;22.40;;;14.50;99.90;;;;;;5056729;28;20506;-69
2021/08/12 01:02:47;;;;;;;23.70;21.73;;;14.40;99.90;;;;;;5058664;28;20459;-69
2021/08/12 01:05:18;;;;;;;24.13;22.33;;;14.40;99.90;;;;;;5056573;28;20546;-69
2021/08/12 01:08:02;;;;;;;24.50;22.40;;;14.40;99.90;;;;;;5051749;28;20627;-69
2021/08/12 01:10:41;;;;;;;24.70;22.40;;;14.40;99.90;;;;;;5061438;28;20447;-70
2021/08/12 01:13:17;;;;;;;24.07;22.07;;;14.40;99.90;;;;;;5056910;28;20462;-71
2021/08/12 01:15:50;;;;;;;24.47;22.60;;;14.50;99.90;;;;;;5054642;28;20486;-68
2021/08/12 01:18:25;;;;;;;23.80;21.70;;;14.40;99.90;;;;;;5056525;28;20455;-69
2021/08/12 01:21:24;;;;;;;24.47;22.17;;;14.40;99.90;;;;;;5052005;28;20453;-69
2021/08/12 01:23:51;;;;;;;22.27;20.60;;;14.40;99.90;;;;;;5053696;28;20459;-70
2021/08/12 01:26:23;;;;;;;23.40;21.30;;;14.40;99.90;;;;;;5048687;28;20466;-70
2021/08/12 01:28:51;;;;;;;23.73;21.80;;;14.40;99.90;;;;;;5058288;28;20451;-69
2021/08/12 01:31:27;;;;;;;26.10;23.63;;;14.40;99.90;;;;;;5055735;28;20799;-69
2021/08/12 01:34:04;;;;;;;25.37;23.47;;;14.40;99.90;;;;;;5056404;28;20777;-69
2021/08/12 01:36:34;;;;;;;25.43;23.00;;;14.40;99.90;;;;;;5060462;28;20514;-72
2021/08/12 01:39:02;;;;;;;25.63;23.63;;;14.40;99.90;;;;;;5056387;28;20466;-71
2021/08/12 01:41:30;;;;;;;23.90;21.73;;;14.40;99.90;;;;;;5052575;28;20462;-70
2021/08/12 01:44:00;;;;;;;23.93;21.93;;;14.50;99.90;;;;;;5057265;28;20467;-69
2021/08/12 01:46:29;;;;;;;25.53;23.23;;;14.50;99.90;;;;;;5049983;28;20478;-71
2021/08/12 01:48:58;;;;;;;24.53;22.23;;;14.40;99.90;;;;;;5055817;28;20454;-69
2021/08/12 01:51:27;;;;;;;22.47;20.57;;;14.40;99.90;;;;;;5055869;28;20498;-71
2021/08/12 01:53:59;;;;;;;22.80;20.80;;;14.40;99.90;;;;;;5052185;28;20953;-71
2021/08/12 01:56:27;;;;;;;27.03;24.53;;;14.40;99.90;;;;;;5052968;28;20567;-70
2021/08/12 01:58:57;;;;;;;27.97;25.10;;;14.40;99.90;;;;;;5051537;28;20458;-69
2021/08/12 02:01:26;;;;;;;25.93;23.40;;;14.40;99.90;;;;;;5054819;28;20472;-69
2021/08/12 02:03:54;;;;;;;26.53;24.13;;;14.50;99.90;;;;;;5054239;28;20818;-71
2021/08/12 02:06:23;;;;;;;28.97;26.40;;;14.50;99.90;;;;;;5059786;28;21017;-70
2021/08/12 02:08:51;;;;;;;29.13;26.40;;;14.50;99.90;;;;;;5058175;28;20463;-71
2021/08/12 02:11:20;;;;;;;25.20;23.07;;;14.60;99.90;;;;;;5058153;28;20485;-69
2021/08/12 02:13:47;;;;;;;27.30;24.50;;;14.70;99.90;;;;;;5054826;28;20932;-71
2021/08/12 02:16:14;;;;;;;26.10;23.80;;;14.70;99.90;;;;;;5054647;28;20602;-69
2021/08/12 02:18:41;;;;;;;27.70;25.20;;;14.70;99.90;;;;;;5058333;28;20455;-69
2021/08/12 02:21:13;;;;;;;28.10;25.60;;;14.80;99.90;;;;;;5059788;28;20458;-69
2021/08/12 02:23:46;;;;;;;28.07;25.07;;;14.80;99.90;;;;;;5057566;28;20461;-70
2021/08/12 02:26:18;;;;;;;27.00;24.60;;;14.80;99.90;;;;;;5060861;28;20638;-71
2021/08/12 02:28:49;;;;;;;25.20;22.93;;;14.80;99.90;;;;;;5061751;28;20459;-70
2021/08/12 02:31:19;;;;;;;24.33;22.10;;;14.80;99.90;;;;;;5053625;28;20458;-70
2021/08/12 02:33:49;;;;;;;24.13;22.27;;;14.80;99.90;;;;;;5062082;28;20818;-69
2021/08/12 02:36:17;;;;;;;28.20;25.60;;;14.90;99.90;;;;;;5062209;28;20486;-69
2021/08/12 02:38:45;;;;;;;28.27;25.40;;;14.90;99.90;;;;;;5056067;28;20464;-69
2021/08/12 02:41:15;;;;;;;28.03;25.50;;;15.00;99.90;;;;;;5056465;28;20482;-68
2021/08/12 02:43:44;;;;;;;29.23;26.43;;;15.00;99.90;;;;;;5056714;28;20463;-69
2021/08/12 02:46:14;;;;;;;28.00;25.30;;;15.10;99.90;;;;;;5054480;28;20452;-69
2021/08/12 02:48:43;;;;;;;31.33;28.20;;;15.10;99.90;;;;;;5050597;28;20455;-71
2021/08/12 02:51:11;;;;;;;33.10;26.50;;;15.10;99.90;;;;;;5054826;28;20561;-71
2021/08/12 02:53:38;;;;;;;31.73;28.30;;;15.10;99.90;;;;;;5058172;28;20466;-68
2021/08/12 02:56:10;;;;;;;30.80;27.87;;;15.10;99.90;;;;;;5053615;28;20478;-70
2021/08/12 02:58:38;;;;;;;27.27;24.63;;;15.10;99.90;;;;;;5058237;28;20467;-70
2021/08/12 03:01:06;;;;;;;26.10;23.77;;;15.10;99.90;;;;;;5056785;28;20487;-69
2021/08/12 03:03:36;;;;;;;26.20;23.70;;;14.90;99.90;;;;;;5057655;28;20451;-68
2021/08/12 03:06:03;;;;;;;26.60;23.97;;;14.60;99.90;;;;;;5055565;28;20521;-70
2021/08/12 03:08:32;;;;;;;25.00;22.90;;;14.50;99.90;;;;;;5057274;28;20783;-69
2021/08/12 03:11:00;;;;;;;25.57;22.93;;;14.40;99.90;;;;;;5061839;28;20449;-68
2021/08/12 03:13:27;;;;;;;25.47;22.93;;;14.30;99.90;;;;;;5057010;28;20451;-70
2021/08/12 03:15:54;;;;;;;28.20;25.57;;;14.40;99.90;;;;;;5054872;28;20501;-70
2021/08/12 03:18:21;;;;;;;25.67;23.30;;;14.40;99.90;;;;;;5057402;28;20454;-69
2021/08/12 03:20:50;;;;;;;27.67;25.07;;;14.30;99.90;;;;;;5055488;28;20471;-69
2021/08/12 03:23:18;;;;;;;25.50;23.40;;;14.30;99.90;;;;;;5050546;28;20950;-70
2021/08/12 03:25:45;;;;;;;28.03;25.40;;;14.20;99.90;;;;;;5057131;28;21135;-68
2021/08/12 03:28:12;;;;;;;30.13;27.00;;;14.20;99.90;;;;;;5060377;28;20463;-68
2021/08/12 03:30:38;;;;;;;29.87;26.60;;;14.20;99.90;;;;;;5053016;28;20463;-68
2021/08/12 03:33:06;;;;;;;31.60;28.50;;;14.20;99.90;;;;;;5059812;28;20462;-70
2021/08/12 03:35:33;;;;;;;30.83;27.83;;;14.20;99.90;;;;;;5049341;28;20476;-69
2021/08/12 03:38:02;;;;;;;30.00;27.10;;;14.20;99.90;;;;;;5055213;28;20542;-69
2021/08/12 03:40:30;;;;;;;31.57;28.60;;;14.10;99.90;;;;;;5053164;28;20560;-70
2021/08/12 03:42:56;;;;;;;36.73;30.13;;;14.10;99.90;;;;;;5047779;28;20455;-71
2021/08/12 03:45:23;;;;;;;32.57;29.27;;;14.20;99.90;;;;;;5058167;28;20443;-70
2021/08/12 03:47:50;;;;;;;30.93;27.83;;;14.20;99.90;;;;;;5059272;28;20469;-69
2021/08/12 03:50:17;;;;;;;29.40;26.20;;;14.30;99.90;;;;;;5056372;28;20467;-69
2021/08/12 03:52:44;;;;;;;31.47;28.27;;;14.30;99.90;;;;;;5057391;28;20542;-69
2021/08/12 03:55:14;;;;;;;30.97;27.80;;;14.30;99.90;;;;;;5049945;28;20925;-69
2021/08/12 03:57:43;;;;;;;30.37;27.23;;;14.20;99.90;;;;;;5061962;28;20471;-69
2021/08/12 04:00:11;;;;;;;27.83;25.33;;;14.30;99.90;;;;;;5049609;28;20946;-69
2021/08/12 04:02:38;;;;;;;29.17;26.10;;;14.20;99.90;;;;;;5050312;28;20463;-69
2021/08/12 04:05:07;;;;;;;30.57;27.60;;;14.20;99.90;;;;;;5054017;28;20467;-69
2021/08/12 04:07:34;;;;;;;29.60;26.57;;;14.30;99.90;;;;;;5059651;28;20520;-69
2021/08/12 04:10:02;;;;;;;31.03;27.70;;;14.20;99.90;;;;;;5057137;28;21474;-70
2021/08/12 04:12:31;;;;;;;31.97;27.27;;;14.20;99.90;;;;;;5052745;28;20466;-68
2021/08/12 04:14:58;;;;;;;30.10;27.13;;;14.20;99.90;;;;;;5053293;28;20460;-71
2021/08/12 04:17:25;;;;;;;31.17;28.17;;;14.20;99.90;;;;;;5051950;28;20857;-69
2021/08/12 04:19:52;;;;;;;29.70;26.90;;;14.20;99.90;;;;;;5053100;28;20462;-70
2021/08/12 04:22:20;;;;;;;31.23;28.47;;;14.20;99.90;;;;;;5053363;28;20808;-69
2021/08/12 04:24:47;;;;;;;30.07;27.07;;;14.20;99.90;;;;;;5058344;28;20460;-68
2021/08/12 04:27:15;;;;;;;29.77;26.80;;;14.30;99.90;;;;;;5058558;28;20456;-70
2021/08/12 04:29:43;;;;;;;29.57;26.53;;;14.30;99.90;;;;;;5049479;28;20452;-69
2021/08/12 04:32:10;;;;;;;29.80;26.90;;;14.30;99.90;;;;;;5055906;28;20451;-70
2021/08/12 04:34:37;;;;;;;31.30;28.37;;;14.30;99.90;;;;;;5057029;28;20479;-68
2021/08/12 04:37:06;;;;;;;30.30;27.40;;;14.30;99.90;;;;;;5058098;28;20488;-71
2021/08/12 04:39:33;;;;;;;31.03;27.67;;;14.30;99.90;;;;;;5053179;28;20460;-71
2021/08/12 04:42:00;;;;;;;31.17;28.23;;;14.30;99.90;;;;;;5058798;28;20492;-71
2021/08/12 04:44:27;;;;;;;32.70;29.53;;;14.30;99.90;;;;;;5048813;28;20471;-70
2021/08/12 04:46:55;;;;;;;33.30;29.83;;;14.30;99.90;;;;;;5057360;28;20466;-68
2021/08/12 04:49:22;;;;;;;32.67;29.40;;;14.20;99.90;;;;;;5055959;28;20456;-69
2021/08/12 04:51:49;;;;;;;31.60;28.03;;;14.10;99.90;;;;;;5057187;28;20480;-68
2021/08/12 04:54:16;;;;;;;32.13;28.93;;;14.10;99.90;;;;;;5061238;28;20460;-68
2021/08/12 04:56:43;;;;;;;30.97;27.60;;;14.20;99.90;;;;;;5048993;28;20577;-69
2021/08/12 04:59:11;;;;;;;30.97;27.87;;;14.20;99.90;;;;;;5053822;28;20504;-68
2021/08/12 05:01:39;;;;;;;30.57;27.57;;;14.30;99.90;;;;;;5057086;28;20462;-68
2021/08/12 05:04:07;;;;;;;28.40;25.93;;;14.40;99.90;;;;;;5054894;28;20507;-69
2021/08/12 05:06:34;;;;;;;27.53;24.80;;;14.40;99.90;;;;;;5052904;28;20460;-68
2021/08/12 05:09:01;;;;;;;35.67;27.67;;;14.60;99.90;;;;;;5055615;28;20481;-69
2021/08/12 05:11:27;;;;;;;28.77;25.90;;;14.70;99.90;;;;;;5056385;28;20472;-68
2021/08/12 05:13:54;;;;;;;26.90;24.27;;;14.80;99.90;;;;;;5053876;28;20467;-68
2021/08/12 05:16:21;;;;;;;28.47;25.97;;;14.90;99.90;;;;;;5056380;28;20573;-70
2021/08/12 05:18:48;;;;;;;29.50;26.50;;;15.00;99.90;;;;;;5051951;28;20456;-68
2021/08/12 05:21:17;;;;;;;28.10;25.40;;;15.20;99.90;;;;;;5048058;28;20452;-68
2021/08/12 05:23:44;;;;;;;32.53;26.23;;;15.30;99.90;;;;;;5055971;28;20458;-69
2021/08/12 05:26:12;;;;;;;27.50;24.90;;;15.50;99.90;;;;;;5056012;28;20563;-70
2021/08/12 05:28:39;;;;;;;28.47;25.73;;;15.60;99.90;;;;;;5055588;28;20474;-69
2021/08/12 05:31:07;;;;;;;30.83;26.00;;;15.70;99.90;;;;;;5051585;28;20451;-71
2021/08/12 05:33:34;;;;;;;29.13;26.23;;;15.90;99.90;;;;;;5048551;28;20878;-69
2021/08/12 05:36:01;;;;;;;29.23;26.40;;;16.00;99.90;;;;;;5053690;28;20475;-71
2021/08/12 05:38:30;;;;;;;29.93;25.60;;;16.20;99.90;;;;;;5057200;28;20460;-69
2021/08/12 05:40:57;;;;;;;27.43;24.60;;;16.30;99.90;;;;;;5056310;28;20493;-70
2021/08/12 05:43:24;;;;;;;29.87;26.57;;;16.40;99.90;;;;;;5057786;28;20459;-68
2021/08/12 05:45:51;;;;;;;27.43;24.40;;;16.40;99.90;;;;;;5063339;28;20454;-69
2021/08/12 05:48:19;;;;;;;27.20;24.57;;;16.50;99.90;;;;;;5058075;28;20562;-70
2021/08/12 05:50:46;;;;;;;28.37;25.57;;;16.60;99.90;;;;;;5059667;28;20574;-68
2021/08/12 05:53:16;;;;;;;27.20;24.50;;;16.70;99.90;;;;;;5054384;28;20877;-69
2021/08/12 05:55:45;;;;;;;38.50;24.80;;;16.90;99.90;;;;;;5046835;28;20873;-68
2021/08/12 05:58:12;;;;;;;26.10;23.70;;;17.00;99.90;;;;;;5051755;28;20806;-70
2021/08/12 06:00:39;;;;;;;25.07;22.70;;;17.10;99.90;;;;;;5054490;28;20467;-71
2021/08/12 06:03:07;;;;;;;27.43;23.13;;;17.20;99.90;;;;;;5049158;28;20487;-68
2021/08/12 06:05:34;;;;;;;25.50;23.10;;;17.30;99.90;;;;;;5051812;28;21017;-68
2021/08/12 06:08:02;;;;;;;34.33;23.77;;;17.50;99.90;;;;;;5053805;28;20472;-68
2021/08/12 06:10:30;;;;;;;26.90;22.90;;;17.60;99.90;;;;;;5049698;28;20458;-70
2021/08/12 06:12:59;;;;;;;27.20;24.30;;;17.60;99.90;;;;;;5050381;28;21295;-67
2021/08/12 06:15:29;;;;;;;25.97;22.53;;;17.60;99.90;;;;;;5052120;28;20468;-68
2021/08/12 06:17:57;;;;;;;24.57;22.03;;;17.70;99.90;;;;;;5052489;28;20585;-70
2021/08/12 06:20:24;;;;;;;23.87;21.47;;;17.90;99.90;;;;;;5056386;28;21008;-70
2021/08/12 06:22:52;;;;;;;24.57;22.20;;;18.10;99.90;;;;;;5053022;28;21028;-70
2021/08/12 06:25:20;;;;;;;25.10;22.03;;;18.30;99.90;;;;;;5058365;28;20458;-68
2021/08/12 06:27:48;;;;;;;23.70;21.33;;;18.50;99.90;;;;;;5062180;28;20465;-68
2021/08/12 06:30:16;;;;;;;23.30;21.10;;;18.70;99.90;;;;;;5045544;28;20464;-69
2021/08/12 06:32:43;;;;;;;23.23;21.00;;;18.90;99.90;;;;;;5046721;28;20451;-68
2021/08/12 06:35:12;;;;;;;22.43;20.33;;;19.20;99.90;;;;;;5054368;28;20458;-68
2021/08/12 06:37:47;;;;;;;23.70;21.20;;;19.10;99.90;;;;;;5054485;28;21063;-68
2021/08/12 06:40:15;;;;;;;22.90;20.73;;;19.30;99.90;;;;;;5060163;28;20458;-68
2021/08/12 06:42:42;;;;;;;21.97;20.10;;;19.50;99.90;;;;;;5046215;28;20456;-69
2021/08/12 06:45:10;;;;;;;22.37;20.23;;;19.70;99.90;;;;;;5049598;28;20465;-68
2021/08/12 06:47:39;;;;;;;22.80;20.63;;;20.00;99.90;;;;;;5056303;28;20467;-69
2021/08/12 06:50:06;;;;;;;23.37;21.10;;;20.00;99.90;;;;;;5053424;28;20486;-68
2021/08/12 06:52:35;;;;;;;23.27;21.30;;;20.00;99.90;;;;;;5046003;28;20465;-70
2021/08/12 06:55:03;;;;;;;22.97;20.30;;;20.00;99.90;;;;;;5054847;28;20792;-69
2021/08/12 06:57:30;;;;;;;22.90;21.00;;;20.30;99.90;;;;;;5051424;28;20491;-70
2021/08/12 06:59:57;;;;;;;23.87;21.90;;;20.60;99.90;;;;;;5053641;28;20451;-68
2021/08/12 07:02:23;;;;;;;23.00;20.60;;;20.80;99.90;;;;;;5052932;28;20468;-71
2021/08/12 07:04:51;;;;;;;23.43;21.13;;;20.90;99.90;;;;;;5056622;28;20463;-70
2021/08/12 07:07:19;;;;;;;23.27;21.40;;;21.20;99.90;;;;;;5049521;28;20943;-69
2021/08/12 07:09:47;;;;;;;23.27;21.47;;;21.20;99.90;;;;;;5046106;28;20463;-69
2021/08/12 07:12:15;;;;;;;22.73;20.77;;;21.10;99.90;;;;;;5053041;28;20959;-69
2021/08/12 07:14:42;;;;;;;21.70;20.00;;;21.00;99.90;;;;;;5049113;28;20466;-69
2021/08/12 07:17:09;;;;;;;22.17;20.17;;;21.40;99.90;;;;;;5049459;28;20912;-69
2021/08/12 07:19:35;;;;;;;21.93;20.03;;;21.60;99.90;;;;;;5049882;28;20455;-69
2021/08/12 07:22:04;;;;;;;23.40;21.40;;;21.60;99.90;;;;;;5048301;28;20466;-71
2021/08/12 07:24:31;;;;;;;22.60;20.37;;;21.80;99.90;;;;;;5055383;28;21308;-72
2021/08/12 07:26:58;;;;;;;22.47;20.17;;;21.90;99.90;;;;;;5050210;28;20463;-71
2021/08/12 07:29:26;;;;;;;22.60;20.60;;;22.10;99.90;;;;;;5055816;28;20486;-71
2021/08/12 07:31:53;;;;;;;25.00;22.40;;;22.10;99.90;;;;;;5053391;28;20452;-69
2021/08/12 07:34:20;;;;;;;24.20;21.87;;;22.10;99.90;;;;;;5054500;28;20456;-70
2021/08/12 07:36:47;;;;;;;23.93;21.50;;;21.90;99.90;;;;;;5050131;28;20480;-69
2021/08/12 07:39:17;;;;;;;24.60;22.10;;;22.00;99.90;;;;;;5055252;28;20495;-70
2021/08/12 07:41:45;;;;;;;25.43;22.67;;;22.20;99.90;;;;;;5055072;28;20896;-70
2021/08/12 07:44:13;;;;;;;23.83;21.63;;;22.20;99.90;;;;;;5052802;28;20462;-71
2021/08/12 07:46:41;;;;;;;23.23;21.30;;;22.30;99.90;;;;;;5050525;28;20464;-69
2021/08/12 07:49:07;;;;;;;24.20;22.30;;;22.50;99.90;;;;;;5049060;28;20486;-68
2021/08/12 07:51:36;;;;;;;27.43;22.73;;;22.40;99.90;;;;;;5050242;28;21003;-69
2021/08/12 07:54:02;;;;;;;24.47;21.97;;;22.40;99.90;;;;;;5052006;28;20517;-70
2021/08/12 07:56:30;;;;;;;26.33;23.50;;;22.20;99.90;;;;;;5046366;28;20459;-69
2021/08/12 07:58:57;;;;;;;23.43;21.63;;;22.40;99.90;;;;;;5050378;28;20780;-70
2021/08/12 08:01:24;;;;;;;23.80;21.60;;;22.70;99.90;;;;;;5049398;28;20471;-69
2021/08/12 08:03:53;;;;;;;24.63;21.93;;;23.00;99.90;;;;;;5050005;28;20468;-70
2021/08/12 08:06:21;;;;;;;24.20;22.10;;;23.10;99.90;;;;;;5045200;28;20513;-69
2021/08/12 08:08:47;;;;;;;24.93;22.40;;;23.10;99.90;;;;;;5051196;28;21282;-69
2021/08/12 08:11:17;;;;;;;23.33;21.43;;;23.30;99.90;;;;;;5052709;28;20459;-70
2021/08/12 08:13:45;;;;;;;25.03;22.60;;;23.30;99.90;;;;;;5046145;28;20538;-70
2021/08/12 08:16:12;;;;;;;23.00;20.60;;;23.30;99.90;;;;;;5043872;28;20487;-70
2021/08/12 08:18:38;;;;;;;22.23;20.40;;;23.30;99.90;;;;;;5045156;28;21040;-69
2021/08/12 08:21:05;;;;;;;23.07;21.07;;;23.40;99.90;;;;;;5052803;28;21034;-70
2021/08/12 08:23:32;;;;;;;22.80;20.57;;;23.50;99.90;;;;;;5045801;28;20463;-70
2021/08/12 08:25:59;;;;;;;24.70;21.67;;;23.70;99.90;;;;;;5048477;28;20468;-70
2021/08/12 08:28:26;;;;;;;23.73;21.30;;;23.80;99.90;;;;;;5051527;28;20451;-70
2021/08/12 08:30:54;;;;;;;23.03;21.23;;;24.10;99.90;;;;;;5047664;28;20466;-70
2021/08/12 08:33:22;;;;;;;26.30;22.17;;;24.10;99.90;;;;;;5044766;28;20456;-70
2021/08/12 08:35:49;;;;;;;24.43;22.10;;;24.10;99.90;;;;;;5053705;28;20976;-70
2021/08/12 08:38:16;;;;;;;23.40;20.93;;;24.30;99.90;;;;;;5054922;28;20478;-72
2021/08/12 08:40:43;;;;;;;23.23;20.97;;;24.50;99.90;;;;;;5050926;28;20533;-73
2021/08/12 08:43:10;;;;;;;23.43;21.03;;;24.70;99.90;;;;;;5049869;28;20463;-70
2021/08/12 08:45:40;;;;;;;22.90;19.80;;;25.20;99.90;;;;;;5044463;28;20466;-72
2021/08/12 08:48:12;;;;;;;23.23;19.80;;;25.80;99.90;;;;;;5048374;28;20972;-71
2021/08/12 08:50:41;;;;;;;21.27;19.40;;;26.60;99.90;;;;;;5052284;28;21019;-70
2021/08/12 08:53:09;;;;;;;20.63;18.60;;;26.80;99.90;;;;;;5054161;28;20952;-70
2021/08/12 08:55:35;;;;;;;20.57;18.90;;;27.00;99.90;;;;;;5048899;28;20464;-71
2021/08/12 08:58:03;;;;;;;19.60;18.20;;;26.90;99.90;;;;;;5046727;28;20495;-71
2021/08/12 09:00:30;;;;;;;22.13;18.17;;;27.40;99.90;;;;;;5051106;28;20466;-72
2021/08/12 09:02:56;;;;;;;19.10;17.70;;;27.80;99.90;;;;;;5052844;28;20542;-71
2021/08/12 09:05:25;;;;;;;20.80;18.90;;;27.70;99.90;;;;;;5050045;28;20475;-70
2021/08/12 09:07:52;;;;;;;18.70;17.27;;;27.50;99.90;;;;;;5044566;28;20550;-72
2021/08/12 09:10:20;;;;;;;18.37;16.97;;;27.40;99.90;;;;;;5051917;28;20494;-70
2021/08/12 09:12:48;;;;;;;18.43;17.13;;;27.90;99.90;;;;;;5050573;28;20458;-72
2021/08/12 09:15:19;;;;;;;18.70;17.50;;;28.60;99.90;;;;;;5054385;28;20462;-72
2021/08/12 09:17:47;;;;;;;19.00;17.80;;;28.20;99.90;;;;;;5053191;28;20486;-73
2021/08/12 09:20:16;;;;;;;18.13;16.80;;;28.80;99.90;;;;;;5059774;28;20517;-71
2021/08/12 09:22:56;;;;;;;19.77;18.10;;;28.80;99.90;;;;;;5052686;28;20541;-71
2021/08/12 09:25:35;;;;;;;19.40;16.70;;;28.20;99.90;;;;;;5060696;28;20577;-71
2021/08/12 09:28:18;;;;;;;17.67;16.43;;;28.30;99.90;;;;;;5055857;28;20867;-72
2021/08/12 09:30:47;;;;;;;17.67;16.60;;;28.30;99.90;;;;;;5058491;28;20453;-71
2021/08/12 09:33:18;;;;;;;18.60;17.00;;;28.40;99.90;;;;;;5053237;28;20463;-71
2021/08/12 09:35:46;;;;;;;18.13;16.93;;;27.70;99.90;;;;;;5049655;28;20467;-71
2021/08/12 09:38:16;;;;;;;18.40;16.80;;;27.80;99.90;;;;;;5056326;28;20580;-71
2021/08/12 09:40:51;;;;;;;21.20;19.33;;;27.90;99.90;;;;;;5052079;28;20450;-71
2021/08/12 09:43:18;;;;;;;16.37;15.17;;;27.50;99.90;;;;;;5054496;28;20752;-71
2021/08/12 09:45:45;;;;;;;16.37;15.37;;;27.90;99.90;;;;;;5052694;28;20468;-71
2021/08/12 09:48:14;;;;;;;16.03;15.13;;;28.10;99.90;;;;;;5056878;28;20954;-71
2021/08/12 09:50:43;;;;;;;17.23;16.30;;;27.80;99.90;;;;;;5056476;28;20590;-70
2021/08/12 09:53:19;;;;;;;16.60;15.40;;;27.80;99.90;;;;;;5052329;28;20455;-71
2021/08/12 09:55:47;;;;;;;16.40;15.40;;;28.00;99.90;;;;;;5051239;28;20825;-71
2021/08/12 09:58:15;;;;;;;34.40;29.77;;;28.00;99.90;;;;;;5055696;28;20491;-71
2021/08/12 10:00:44;;;;;;;18.40;16.80;;;27.60;99.90;;;;;;5058576;28;20965;-71
2021/08/12 10:03:23;;;;;;;17.80;16.57;;;27.20;99.90;;;;;;5053314;28;20870;-70
2021/08/12 10:05:51;;;;;;;19.10;17.90;;;27.70;99.90;;;;;;5053306;28;20939;-71
2021/08/12 10:08:35;;;;;;;16.70;15.70;;;27.30;99.90;;;;;;5051198;28;20471;-72
2021/08/12 10:11:18;;;;;;;17.10;15.80;;;26.80;99.90;;;;;;5054639;28;20455;-71
2021/08/12 10:13:48;;;;;;;16.97;15.87;;;27.30;99.90;;;;;;5048331;28;20460;-71
2021/08/12 10:16:17;;;;;;;16.60;15.70;;;27.80;99.90;;;;;;5056346;28;20893;-70
2021/08/12 10:18:45;;;;;;;16.87;15.80;;;28.20;99.90;;;;;;5058203;28;20501;-73
2021/08/12 10:21:14;;;;;;;22.40;20.17;;;28.30;99.90;;;;;;5053985;28;20482;-72
2021/08/12 10:23:46;;;;;;;18.43;17.10;;;28.70;99.90;;;;;;5053591;28;20961;-71
2021/08/12 10:26:14;;;;;;;17.00;16.00;;;29.20;99.90;;;;;;5051922;28;20467;-72
2021/08/12 10:28:44;;;;;;;24.43;22.10;;;28.80;99.10;;;;;;5053191;28;20460;-72
2021/08/12 10:31:14;;;;;;;17.90;16.70;;;29.30;98.10;;;;;;5057417;28;20455;-72
2021/08/12 10:33:41;;;;;;;18.17;17.03;;;29.40;98.00;;;;;;5051784;28;20506;-71
2021/08/12 10:36:09;;;;;;;19.37;17.97;;;29.90;98.30;;;;;;5052561;28;20866;-72
2021/08/12 10:38:36;;;;;;;19.30;17.80;;;29.90;96.70;;;;;;5053506;28;21318;-71
2021/08/12 10:41:06;;;;;;;70.00;55.97;;;29.90;96.70;;;;;;5054421;28;20568;-72
2021/08/12 10:43:33;;;;;;;18.10;17.00;;;29.90;96.70;;;;;;5052166;28;20474;-71
2021/08/12 10:46:02;;;;;;;17.63;16.73;;;29.60;95.40;;;;;;5057571;28;20451;-73
2021/08/12 10:48:32;;;;;;;18.40;17.20;;;29.60;95.70;;;;;;5050610;28;20466;-71
2021/08/12 10:51:10;;;;;;;23.63;21.47;;;29.90;95.10;;;;;;5054111;28;20550;-71
2021/08/12 10:53:38;;;;;;;17.27;16.17;;;29.60;95.10;;;;;;5055004;28;20455;-71
2021/08/12 10:56:21;;;;;;;17.43;16.43;;;29.40;95.40;;;;;;5054479;28;20462;-71
2021/08/12 10:59:08;;;;;;;18.07;17.07;;;29.40;95.70;;;;;;5046179;28;20491;-71
2021/08/12 11:01:38;;;;;;;18.83;17.30;;;29.60;96.10;;;;;;5052341;28;20459;-72
2021/08/12 11:04:05;;;;;;;18.53;17.40;;;29.10;95.50;;;;;;5048104;28;20513;-71
2021/08/12 11:07:21;;;;;;;21.53;20.07;;;29.30;94.90;;;;;;5046732;28;20460;-72
2021/08/12 11:09:57;;;;;;;17.77;16.23;;;29.00;95.70;;;;;;5049182;28;20487;-72
2021/08/12 11:13:02;;;;;;;18.27;17.17;;;29.10;98.00;;;;;;5055702;28;20463;-72
2021/08/12 11:16:00;;;;;;;17.93;16.93;;;29.00;96.30;;;;;;5052638;28;20621;-71
2021/08/12 11:18:48;;;;;;;17.77;16.87;;;28.70;97.40;;;;;;5054666;28;20487;-72
2021/08/12 11:21:36;;;;;;;18.37;17.27;;;29.00;97.10;;;;;;5050723;28;20829;-72
2021/08/12 11:24:06;;;;;;;17.37;16.37;;;29.20;97.90;;;;;;5052726;28;20475;-71
2021/08/12 11:27:03;;;;;;;17.70;16.60;;;29.20;97.90;;;;;;5051813;28;20507;-71
2021/08/12 11:29:35;;;;;;;17.80;16.67;;;29.60;98.80;;;;;;5044510;28;20462;-72
2021/08/12 11:32:09;;;;;;;18.90;17.73;;;30.00;97.10;;;;;;5049400;28;20456;-71
2021/08/12 11:34:44;;;;;;;21.27;19.70;;;30.10;95.50;;;;;;5051190;28;20573;-73
2021/08/12 11:37:14;;;;;;;19.00;17.80;;;30.70;95.30;;;;;;5047099;28;20471;-72
2021/08/12 11:40:03;;;;;;;19.00;17.90;;;31.10;93.50;;;;;;5053299;28;20491;-73
2021/08/12 11:42:34;;;;;;;19.70;18.40;;;31.40;93.60;;;;;;5049369;28;20473;-74
2021/08/12 11:45:04;;;;;;;19.80;18.60;;;32.60;92.70;;;;;;5050615;28;20451;-73
2021/08/12 11:47:31;;;;;;;20.57;19.17;;;33.70;91.60;;;;;;5054345;28;20953;-72
2021/08/12 11:49:59;;;;;;;19.77;18.57;;;34.50;85.90;;;;;;5052280;28;20462;-72
2021/08/12 11:52:29;;;;;;;19.80;18.60;;;34.50;85.20;;;;;;5053887;28;20455;-72
2021/08/12 11:54:58;;;;;;;19.70;18.60;;;34.70;82.30;;;;;;5049574;28;21044;-72
2021/08/12 11:57:45;;;;;;;20.47;19.07;;;34.60;76.90;;;;;;5054004;28;20464;-72
2021/08/12 12:00:15;;;;;;;19.20;18.00;;;35.00;76.30;;;;;;5052591;28;20535;-73
2021/08/12 12:02:49;;;;;;;20.27;18.97;;;35.80;74.40;;;;;;5051313;28;20464;-72
2021/08/12 12:05:18;;;;;;;19.43;18.23;;;36.50;71.30;;;;;;5049671;28;20459;-72
2021/08/12 12:07:47;;;;;;;19.93;18.77;;;36.30;67.50;;;;;;5053334;28;20460;-72
2021/08/12 12:10:25;;;;;;;19.83;18.53;;;36.00;60.00;;;;;;5053379;28;20466;-73
2021/08/12 12:12:52;;;;;;;19.30;18.10;;;36.60;63.90;;;;;;5046321;28;20788;-72
2021/08/12 12:15:34;;;;;;;19.77;18.57;;;36.80;65.20;;;;;;5051160;28;20975;-72
2021/08/12 12:18:01;;;;;;;20.27;19.00;;;36.20;59.20;;;;;;5045573;28;20501;-73
2021/08/12 12:20:29;;;;;;;18.77;17.67;;;35.80;57.50;;;;;;5056700;28;20478;-72
2021/08/12 12:22:58;;;;;;;19.47;18.37;;;35.70;58.80;;;;;;5051236;28;20945;-74
2021/08/12 12:25:26;;;;;;;19.53;18.13;;;36.60;58.90;;;;;;5050037;28;20467;-72
2021/08/12 12:27:55;;;;;;;19.23;18.13;;;37.60;59.60;;;;;;5056542;28;20458;-73
2021/08/12 12:30:24;;;;;;;18.97;17.57;;;37.30;56.80;;;;;;5052838;28;20486;-74
2021/08/12 12:33:00;;;;;;;18.97;17.63;;;36.70;57.20;;;;;;5049878;28;21071;-72
2021/08/12 12:35:29;;;;;;;19.57;18.27;;;37.50;59.20;;;;;;5054977;28;21001;-73
2021/08/12 12:37:56;;;;;;;19.47;18.27;;;37.00;57.10;;;;;;5051465;28;20936;-72
2021/08/12 12:40:24;;;;;;;18.53;17.53;;;36.60;57.90;;;;;;5052116;28;20873;-73